Time;durP1;ratioP1;P1;durP2;ratioP2;P2;SDS_P1;SDS_P2;PMS_P1;PMS_P2;Temp;Humidity;BMP_temperature;BMP_pressure;BME280_temperature;BME280_humidity;BME280_pressure;Samples;Min_cycle;Max_cycle;Signal;HPM_P1;HPM_P2
2023/03/01 00:01:19;;;;;;;4.13;1.40;;;;;;;-3.47;56.38;146472.84;5082709;28;20055;-64
2023/03/01 00:03:45;;;;;;;4.00;1.63;;;;;;;-3.48;56.46;146470.31;5082949;28;20539;-63
2023/03/01 00:06:11;;;;;;;3.90;1.30;;;;;;;-3.52;57.20;146461.47;5082535;28;20095;-62
2023/03/01 00:08:37;;;;;;;3.45;1.13;;;;;;;-3.41;56.95;146488.06;5089181;28;20091;-63
2023/03/01 00:11:33;;;;;;;2.83;1.23;;;;;;;-3.62;57.64;146434.81;5072005;28;20020;-63
2023/03/01 00:14:01;;;;;;;5.15;1.33;;;;;;;-3.59;56.66;146442.44;5079999;28;20044;-63
2023/03/01 00:16:30;;;;;;;1.67;1.13;;;;;;;-3.61;57.92;146437.38;5090189;28;20028;-63
2023/03/01 00:18:56;;;;;;;3.42;1.08;;;;;;;-3.58;57.17;146444.97;5064612;28;20240;-63
2023/03/01 00:21:23;;;;;;;1.52;1.10;;;;;;;-3.83;58.08;146385.41;5077672;28;20103;-63
2023/03/01 00:23:49;;;;;;;2.63;1.00;;;;;;;-3.78;57.66;146396.81;5082192;28;20024;-63
2023/03/01 00:26:16;;;;;;;3.08;1.02;;;;;;;-3.77;58.32;146398.09;5086235;28;20378;-62
2023/03/01 00:28:42;;;;;;;2.67;1.20;;;;;;;-3.85;57.62;146380.38;5068070;28;20029;-62
2023/03/01 00:31:16;;;;;;;2.30;1.10;;;;;;;-3.83;58.53;146384.16;5066927;28;20033;-63
2023/03/01 00:33:42;;;;;;;2.95;1.40;;;;;;;-3.90;57.96;146366.44;5092586;28;20032;-61
2023/03/01 00:36:10;;;;;;;1.65;1.02;;;;;;;-3.94;57.97;146356.28;5084168;28;20325;-62
2023/03/01 00:38:40;;;;;;;2.03;1.20;;;;;;;-3.78;58.26;146396.81;5088800;28;20024;-64
2023/03/01 00:41:16;;;;;;;3.10;1.23;;;;;;;-3.92;58.21;146361.34;5070596;28;20375;-61
2023/03/01 00:43:43;;;;;;;1.67;1.05;;;;;;;-3.86;58.23;146376.56;5082147;28;20055;-62
2023/03/01 00:46:14;;;;;;;3.17;1.30;;;;;;;-3.85;59.45;146380.38;5093071;28;20324;-63
2023/03/01 00:48:40;;;;;;;1.90;1.02;;;;;;;-3.87;57.10;146375.28;5082057;28;20040;-62
2023/03/01 00:51:09;;;;;;;1.92;1.00;;;;;;;-4.00;58.24;146342.34;5092689;28;20044;-61
2023/03/01 00:53:35;;;;;;;2.75;1.13;;;;;;;-4.02;57.54;146338.56;5069770;28;20029;-61
2023/03/01 00:56:02;;;;;;;3.70;1.27;;;;;;;-3.79;57.67;146394.31;5047407;28;20031;-62
2023/03/01 00:58:28;;;;;;;2.97;1.10;;;;;;;-3.96;57.87;146351.19;5061046;28;20108;-63
2023/03/01 01:00:54;;;;;;;2.35;1.20;;;;;;;-3.97;57.88;146349.94;5083583;28;20036;-62
2023/03/01 01:03:20;;;;;;;2.13;1.30;;;;;;;-4.20;57.27;146292.97;5081322;28;20039;-61
2023/03/01 01:05:45;;;;;;;3.08;1.10;;;;;;;-4.12;59.11;146311.94;5084924;28;20027;-62
2023/03/01 01:08:11;;;;;;;3.30;1.17;;;;;;;-4.23;58.10;146286.63;5081803;28;20027;-62
2023/03/01 01:10:37;;;;;;;2.83;1.27;;;;;;;-4.11;57.37;146315.72;5090647;28;20362;-63
2023/03/01 01:13:03;;;;;;;5.65;1.15;;;;;;;-4.16;56.81;146304.34;5081784;28;20033;-63
2023/03/01 01:15:29;;;;;;;2.97;1.30;;;;;;;-4.07;58.31;146325.88;5094312;28;20070;-62
2023/03/01 01:17:54;;;;;;;1.15;0.90;;;;;;;-4.21;57.88;146290.41;5086200;28;20020;-62
2023/03/01 01:20:20;;;;;;;3.90;0.95;;;;;;;-4.05;59.13;146330.91;5085634;28;20039;-62
2023/03/01 01:22:46;;;;;;;1.10;1.00;;;;;;;-4.09;57.59;146320.81;5089826;28;20059;-62
2023/03/01 01:25:12;;;;;;;4.78;1.10;;;;;;;-4.16;58.17;146304.34;5082719;28;20368;-63
2023/03/01 01:27:37;;;;;;;2.95;1.17;;;;;;;-4.25;57.93;146280.28;5093519;28;20024;-62
2023/03/01 01:30:04;;;;;;;2.67;1.23;;;;;;;-4.20;58.71;146292.97;5086759;28;20052;-62
2023/03/01 01:32:29;;;;;;;2.83;1.20;;;;;;;-4.04;58.52;146333.47;5067557;28;20031;-62
2023/03/01 01:34:55;;;;;;;2.53;1.05;;;;;;;-4.06;59.94;146328.41;5086812;28;20032;-63
2023/03/01 01:37:21;;;;;;;2.25;0.80;;;;;;;-4.06;58.57;146328.41;5060558;28;20322;-63
2023/03/01 01:39:47;;;;;;;2.15;1.02;;;;;;;-4.10;60.61;146318.28;5081022;28;20080;-61
2023/03/01 01:42:17;;;;;;;3.58;1.27;;;;;;;-4.06;59.60;146328.41;5091858;28;20301;-63
2023/03/01 01:44:46;;;;;;;2.42;0.82;;;;;;;-4.19;60.25;146295.47;5083648;28;20020;-63
2023/03/01 01:47:20;;;;;;;2.00;1.10;;;;;;;-4.04;59.84;146333.47;5084542;28;20039;-63
2023/03/01 01:49:53;;;;;;;1.73;0.98;;;;;;;-4.13;58.58;146310.69;5087442;28;20028;-62
2023/03/01 01:52:26;;;;;;;4.15;1.05;;;;;;;-4.10;59.52;146317.03;5065242;28;20036;-62
2023/03/01 01:54:56;;;;;;;1.63;0.90;;;;;;;-4.11;59.28;146315.72;5092314;28;20036;-62
2023/03/01 01:57:43;;;;;;;2.50;1.13;;;;;;;-4.14;58.93;146306.88;5050983;28;20025;-63
2023/03/01 02:00:22;;;;;;;3.47;0.98;;;;;;;-4.17;59.20;146301.78;5092226;28;20101;-63
2023/03/01 02:02:54;;;;;;;2.40;1.00;;;;;;;-4.22;59.18;146287.88;5070425;28;20020;-63
2023/03/01 02:05:38;;;;;;;5.22;1.33;;;;;;;-4.13;59.11;146310.69;5085770;28;20295;-63
2023/03/01 02:08:04;;;;;;;3.10;1.30;;;;;;;-4.05;59.31;146330.91;5088103;28;20035;-63
2023/03/01 02:10:33;;;;;;;1.65;1.20;;;;;;;-4.04;58.83;146333.47;5082316;28;20205;-63
2023/03/01 02:12:59;;;;;;;2.97;1.33;;;;;;;-4.19;60.30;146295.47;5075227;28;20021;-62
2023/03/01 02:15:45;;;;;;;3.78;1.08;;;;;;;-4.26;60.17;146277.72;5067938;28;20344;-64
2023/03/01 02:18:14;;;;;;;1.25;0.93;;;;;;;-4.13;60.03;146310.69;5077493;28;20040;-63
2023/03/01 02:21:02;;;;;;;1.65;1.00;;;;;;;-4.51;59.97;146216.94;5067806;28;20020;-63
2023/03/01 02:23:29;;;;;;;5.03;1.33;;;;;;;-4.30;59.85;146267.59;5060295;28;20033;-63
2023/03/01 02:26:12;;;;;;;3.92;1.10;;;;;;;-4.21;59.69;146290.41;5055500;28;20032;-62
2023/03/01 02:28:40;;;;;;;4.13;1.70;;;;;;;-4.53;59.50;146213.16;5081975;28;20052;-63
2023/03/01 02:33:54;;;;;;;6.15;1.80;;;;;;;-4.31;59.82;146265.09;5071758;28;20032;-62
2023/03/01 02:36:24;;;;;;;6.05;1.92;;;;;;;-4.38;59.79;146248.59;5072334;28;20425;-65
2023/03/01 02:38:53;;;;;;;8.20;2.13;;;;;;;-4.51;60.82;146218.19;5063555;28;20088;-63
2023/03/01 02:41:21;;;;;;;8.70;2.17;;;;;;;-4.45;60.64;146230.88;5072973;28;20027;-62
2023/03/01 02:43:47;;;;;;;7.47;2.38;;;;;;;-4.39;60.55;146247.34;5074934;28;20051;-62
2023/03/01 02:46:21;;;;;;;4.75;1.83;;;;;;;-4.38;60.32;146248.59;5083897;28;20028;-62
2023/03/01 02:48:56;;;;;;;7.50;1.98;;;;;;;-4.47;60.26;146227.09;5076835;28;20252;-66
2023/03/01 02:51:27;;;;;;;3.72;1.60;;;;;;;-4.59;61.43;146196.69;5063166;28;20029;-63
2023/03/01 02:53:59;;;;;;;4.05;1.65;;;;;;;-4.53;61.14;146213.16;5075636;28;20056;-63
2023/03/01 02:56:25;;;;;;;3.58;1.40;;;;;;;-4.59;61.39;146197.97;5089335;28;20038;-62
2023/03/01 02:58:52;;;;;;;2.17;1.20;;;;;;;-4.67;61.07;146177.72;5084598;28;20037;-63
2023/03/01 03:01:20;;;;;;;2.65;1.52;;;;;;;-4.67;61.81;146177.72;5084312;28;20031;-63
2023/03/01 03:03:46;;;;;;;4.18;1.30;;;;;;;-4.64;61.14;146185.31;5083973;28;20189;-62
2023/03/01 03:06:12;;;;;;;2.28;1.17;;;;;;;-4.65;61.00;146181.50;5083927;28;20028;-62
2023/03/01 03:08:38;;;;;;;3.25;1.67;;;;;;;-4.69;61.74;146172.63;5069888;28;20024;-62
2023/03/01 03:11:03;;;;;;;5.68;1.60;;;;;;;-4.64;61.83;146185.31;5066865;28;20021;-63
2023/03/01 03:13:29;;;;;;;4.78;1.67;;;;;;;-4.69;60.50;146172.63;5097103;28;20213;-63
2023/03/01 03:15:56;;;;;;;3.83;1.50;;;;;;;-4.96;61.97;146105.53;5090750;28;20321;-63
2023/03/01 03:18:25;;;;;;;4.03;1.52;;;;;;;-4.83;62.11;146138.47;5096839;28;20019;-63
2023/03/01 03:20:52;;;;;;;6.65;1.40;;;;;;;-4.76;62.55;146154.91;5092811;28;20278;-63
2023/03/01 03:23:19;;;;;;;4.47;1.52;;;;;;;-4.77;62.45;146152.41;5081329;28;20021;-63
2023/03/01 03:25:47;;;;;;;6.35;1.60;;;;;;;-4.73;62.28;146163.78;5072276;28;20073;-62
2023/03/01 03:28:13;;;;;;;5.00;1.80;;;;;;;-4.81;61.48;146142.28;5075959;28;20032;-63
2023/03/01 03:30:41;;;;;;;3.47;1.50;;;;;;;-4.86;62.15;146130.84;5095409;28;20021;-62
2023/03/01 03:33:07;;;;;;;3.40;1.60;;;;;;;-4.81;62.49;146143.53;5091307;28;20095;-63
2023/03/01 03:35:59;;;;;;;5.90;2.00;;;;;;;-4.70;61.65;146171.38;5083472;28;20099;-63
2023/03/01 03:38:25;;;;;;;;;;;;;;;-4.83;62.06;146138.47;5078188;28;20073;-62
2023/03/01 03:41:00;;;;;;;1.88;1.15;;;;;;;-4.93;62.72;146114.41;5086372;28;19912;-62
2023/03/01 03:43:26;;;;;;;1.95;1.02;;;;;;;-5.00;63.35;146095.41;5078826;28;20070;-62
2023/03/01 03:45:52;;;;;;;4.13;1.40;;;;;;;-4.94;63.00;146110.63;5059154;28;20293;-64
2023/03/01 03:48:18;;;;;;;3.22;1.38;;;;;;;-4.98;62.66;146101.75;5076378;28;20040;-62
2023/03/01 03:50:49;;;;;;;5.95;2.83;;;;;;;-4.96;62.16;146106.84;5090554;28;20032;-63
2023/03/01 03:53:15;;;;;;;4.07;1.40;;;;;;;-4.93;63.62;146114.41;5084641;28;20028;-64
2023/03/01 03:55:40;;;;;;;2.22;1.05;;;;;;;-4.83;62.33;146137.19;5083120;28;20186;-63
2023/03/01 03:58:08;;;;;;;3.40;1.33;;;;;;;-4.99;63.29;146097.94;5092181;28;20028;-62
2023/03/01 04:00:40;;;;;;;2.45;1.38;;;;;;;-5.33;63.64;146015.72;5066061;28;20020;-61
2023/03/01 04:03:06;;;;;;;3.05;1.17;;;;;;;-5.11;63.28;146070.09;5073069;28;20092;-62
2023/03/01 04:05:32;;;;;;;2.88;1.60;;;;;;;-5.01;64.14;146092.91;5084242;28;20044;-61
2023/03/01 04:08:01;;;;;;;3.83;1.25;;;;;;;-5.12;64.04;146067.56;5066244;28;20316;-62
2023/03/01 04:10:34;;;;;;;4.13;1.20;;;;;;;-4.98;63.64;146100.50;5083158;28;20089;-61
2023/03/01 04:12:59;;;;;;;4.35;1.23;;;;;;;-4.90;64.20;146120.75;5082442;28;20036;-62
2023/03/01 04:15:26;;;;;;;3.67;1.30;;;;;;;-4.93;63.55;146114.41;5082681;28;20038;-63
2023/03/01 04:17:54;;;;;;;3.40;1.38;;;;;;;-4.92;63.72;146115.66;5082503;28;20035;-64
2023/03/01 04:20:37;;;;;;;4.75;1.30;;;;;;;-4.93;62.29;146113.13;5065244;28;20028;-63
2023/03/01 04:23:20;;;;;;;2.65;1.20;;;;;;;-5.09;62.96;146075.19;5082542;28;20028;-62
2023/03/01 04:25:55;;;;;;;3.38;1.80;;;;;;;-5.21;63.51;146046.06;5064666;28;20067;-62
2023/03/01 04:28:24;;;;;;;2.75;1.35;;;;;;;-5.33;63.79;146015.72;5079067;28;20100;-62
2023/03/01 04:30:50;;;;;;;3.15;1.30;;;;;;;-5.09;63.67;146075.19;5082140;28;20042;-63
2023/03/01 04:33:16;;;;;;;5.72;1.50;;;;;;;-4.99;64.20;146097.94;5082525;28;20209;-62
2023/03/01 04:35:41;;;;;;;3.40;1.67;;;;;;;-5.11;64.94;146070.09;5082242;28;20027;-62
2023/03/01 04:38:07;;;;;;;4.43;1.38;;;;;;;-5.10;63.38;146072.66;5087222;28;20396;-61
2023/03/01 04:40:33;;;;;;;4.72;1.58;;;;;;;-5.00;64.39;146095.41;5082003;28;20120;-64
2023/03/01 04:42:59;;;;;;;2.58;1.15;;;;;;;-5.04;64.88;146086.56;5087516;28;20028;-63
2023/03/01 04:45:25;;;;;;;3.00;1.48;;;;;;;-5.24;64.77;146037.22;5081909;28;20025;-62
2023/03/01 04:47:51;;;;;;;3.55;1.45;;;;;;;-5.20;65.12;146048.59;5081515;28;20100;-61
2023/03/01 04:50:20;;;;;;;3.97;1.20;;;;;;;-4.99;63.90;146099.19;5087057;28;20032;-62
2023/03/01 04:52:46;;;;;;;3.50;1.40;;;;;;;-5.09;65.02;146075.19;5081892;28;20074;-61
2023/03/01 04:55:12;;;;;;;3.08;1.30;;;;;;;-4.84;64.04;146135.94;5087234;28;20096;-62
2023/03/01 04:57:39;;;;;;;4.95;1.58;;;;;;;-5.06;63.17;146082.78;5081514;28;20059;-61
2023/03/01 05:00:19;;;;;;;6.68;1.70;;;;;;;-5.01;64.03;146094.16;5066092;28;20301;-64
2023/03/01 05:03:00;;;;;;;3.25;1.38;;;;;;;-5.11;63.70;146070.09;5083477;28;20028;-62
2023/03/01 05:05:33;;;;;;;3.70;2.00;;;;;;;-4.98;64.64;146100.50;5081747;28;20035;-62
2023/03/01 05:08:01;;;;;;;4.85;2.08;;;;;;;-4.87;63.60;146128.34;5061086;28;20033;-62
2023/03/01 05:10:29;;;;;;;4.85;1.88;;;;;;;-5.10;64.55;146071.34;5060056;28;20029;-62
2023/03/01 05:12:57;;;;;;;4.95;1.52;;;;;;;-4.93;64.84;146114.41;5087013;28;20066;-61
2023/03/01 05:15:25;;;;;;;5.88;1.70;;;;;;;-4.85;64.74;146133.38;5081429;28;20024;-62
2023/03/01 05:17:51;;;;;;;4.45;1.98;;;;;;;-5.10;64.15;146071.34;5081682;28;20324;-61
2023/03/01 05:20:17;;;;;;;6.22;1.73;;;;;;;-4.87;63.03;146129.59;5088636;28;20353;-63
2023/03/01 05:22:43;;;;;;;4.10;1.75;;;;;;;-4.90;64.44;146120.75;5081378;28;20028;-63
2023/03/01 05:25:09;;;;;;;6.35;2.08;;;;;;;-4.83;63.92;146138.47;5080174;28;20036;-62
2023/03/01 05:27:35;;;;;;;3.63;1.48;;;;;;;-4.95;63.57;146108.09;5074660;28;20029;-63
2023/03/01 05:30:13;;;;;;;5.30;1.80;;;;;;;-4.82;64.15;146139.72;5072475;28;20403;-62
2023/03/01 05:32:45;;;;;;;5.43;1.80;;;;;;;-4.63;63.84;146186.56;5063560;28;20220;-61
2023/03/01 05:35:15;;;;;;;6.95;2.15;;;;;;;-4.67;63.62;146177.72;5080917;28;20232;-62
2023/03/01 05:37:45;;;;;;;4.70;2.08;;;;;;;-4.62;63.46;146189.09;5081074;28;20036;-62
2023/03/01 05:40:16;;;;;;;6.25;2.28;;;;;;;-4.46;63.61;146229.63;5069663;28;20536;-62
2023/03/01 05:42:51;;;;;;;5.38;2.28;;;;;;;-4.72;62.88;146165.03;5083142;28;20357;-62
2023/03/01 05:45:18;;;;;;;5.00;2.22;;;;;;;-4.30;63.84;146268.88;5050903;28;20021;-62
2023/03/01 05:47:45;;;;;;;4.80;1.92;;;;;;;-4.49;63.09;146222.00;5066973;28;20032;-62
2023/03/01 05:50:19;;;;;;;7.93;2.35;;;;;;;-4.28;63.13;146272.69;5079951;28;20051;-62
2023/03/01 05:52:50;;;;;;;5.07;2.20;;;;;;;-4.25;64.39;146281.53;5067082;28;20020;-62
2023/03/01 05:55:20;;;;;;;3.88;1.80;;;;;;;-4.17;62.79;146301.78;5071873;28;20107;-61
2023/03/01 05:57:46;;;;;;;7.40;2.42;;;;;;;-4.12;63.70;146311.94;5062971;28;20320;-62
2023/03/01 06:00:14;;;;;;;6.28;2.30;;;;;;;-4.22;63.84;146287.88;5081206;28;20043;-61
2023/03/01 06:02:40;;;;;;;4.65;2.30;;;;;;;-4.12;64.37;146313.19;5075133;28;20020;-63
2023/03/01 06:05:08;;;;;;;5.80;1.92;;;;;;;-4.09;63.90;146320.81;5080796;28;20051;-63
2023/03/01 06:07:34;;;;;;;4.47;1.92;;;;;;;-4.15;63.72;146305.59;5083887;28;20031;-63
2023/03/01 06:10:00;;;;;;;4.53;1.92;;;;;;;-4.07;63.12;146325.88;5086279;28;20021;-62
2023/03/01 06:12:30;;;;;;;3.92;1.92;;;;;;;-4.03;62.38;146336.00;5084684;28;20276;-63
2023/03/01 06:14:55;;;;;;;3.85;1.95;;;;;;;-4.03;62.62;146336.00;5085431;28;20060;-61
2023/03/01 06:17:21;;;;;;;5.90;1.92;;;;;;;-4.00;63.04;146342.34;5085465;28;20480;-62
2023/03/01 06:19:47;;;;;;;3.53;1.73;;;;;;;-3.87;62.36;146374.03;5084890;28;20039;-62
2023/03/01 06:22:13;;;;;;;5.85;2.50;;;;;;;-3.90;63.18;146367.69;5084705;28;20252;-63
2023/03/01 06:24:38;;;;;;;4.15;1.95;;;;;;;-3.87;61.45;146375.28;5084540;28;20084;-63
2023/03/01 06:27:04;;;;;;;5.75;2.42;;;;;;;-3.84;62.70;146381.63;5084248;28;20024;-63
2023/03/01 06:29:30;;;;;;;14.45;7.53;;;;;;;-3.55;61.98;146453.88;5069159;28;20039;-62
2023/03/01 06:31:56;;;;;;;6.68;2.15;;;;;;;-3.55;60.89;146452.56;5084630;28;20046;-67
2023/03/01 06:34:21;;;;;;;5.13;1.90;;;;;;;-3.58;61.78;146446.22;5087357;28;20220;-62
2023/03/01 06:36:47;;;;;;;6.15;2.50;;;;;;;-3.17;61.39;146546.38;5083844;28;20028;-62
2023/03/01 06:39:13;;;;;;;4.32;1.90;;;;;;;-3.24;60.70;146528.63;5087486;28;20028;-63
2023/03/01 06:41:38;;;;;;;4.38;2.03;;;;;;;-3.03;60.17;146581.88;5069633;28;20017;-62
2023/03/01 06:44:04;;;;;;;4.18;2.22;;;;;;;-2.89;59.16;146614.81;5083993;28;20024;-62
2023/03/01 06:46:30;;;;;;;5.10;1.77;;;;;;;-2.87;58.88;146619.91;5087959;28;20135;-62
2023/03/01 06:48:55;;;;;;;5.40;1.92;;;;;;;-2.80;58.59;146637.69;5083755;28;20397;-62
2023/03/01 06:51:21;;;;;;;6.22;2.20;;;;;;;-2.74;58.77;146652.88;5083811;28;20029;-63
2023/03/01 06:53:46;;;;;;;4.53;1.85;;;;;;;-2.82;59.48;146632.56;5083614;28;20020;-63
2023/03/01 06:56:12;;;;;;;4.95;2.03;;;;;;;-2.10;58.12;146810.19;5077765;28;20033;-62
2023/03/01 06:58:37;;;;;;;7.80;2.63;;;;;;;-2.08;57.85;146815.31;5073233;28;20031;-63
2023/03/01 07:01:08;;;;;;;5.47;2.35;;;;;;;-1.86;57.18;146869.84;5065841;28;20029;-63
2023/03/01 07:03:33;;;;;;;5.93;2.40;;;;;;;-1.33;56.53;147000.59;5057211;28;20082;-63
2023/03/01 07:05:59;;;;;;;5.47;2.50;;;;;;;-0.33;54.19;147245.81;5071381;28;20309;-62
2023/03/01 07:08:24;;;;;;;6.25;2.47;;;;;;;-0.33;53.44;147247.06;5078658;28;20060;-62
2023/03/01 07:10:57;;;;;;;4.97;2.20;;;;;;;-0.37;53.92;147238.19;5088094;28;20017;-62
2023/03/01 07:13:23;;;;;;;6.03;2.08;;;;;;;-1.07;54.39;147064.09;5065334;28;20021;-64
2023/03/01 07:15:48;;;;;;;6.20;2.65;;;;;;;-1.06;53.82;147066.66;5078292;28;20051;-62
2023/03/01 07:18:14;;;;;;;4.47;1.98;;;;;;;-1.12;54.41;147051.44;5076217;28;20032;-61
2023/03/01 07:20:39;;;;;;;5.72;2.50;;;;;;;-1.44;53.56;146972.66;5072947;28;20028;-62
2023/03/01 07:23:06;;;;;;;5.05;2.70;;;;;;;-1.36;54.16;146993.00;5063201;28;20063;-63
2023/03/01 07:25:32;;;;;;;7.70;2.40;;;;;;;-1.31;55.36;147005.72;5082857;28;20028;-63
2023/03/01 07:27:58;;;;;;;5.43;2.38;;;;;;;-1.82;54.99;146880.00;5080691;28;20020;-62
2023/03/01 07:30:27;;;;;;;5.82;2.50;;;;;;;-1.58;55.18;146939.66;5082998;28;20325;-63
2023/03/01 07:32:53;;;;;;;3.78;2.00;;;;;;;-1.48;55.88;146963.81;5083349;28;20040;-63
2023/03/01 07:35:18;;;;;;;6.55;2.22;;;;;;;-1.41;55.63;146980.28;5079792;28;20016;-62
2023/03/01 07:37:44;;;;;;;3.55;1.83;;;;;;;-0.86;55.76;147116.19;5082075;28;20093;-63
2023/03/01 07:40:10;;;;;;;6.03;2.58;;;;;;;-0.70;55.23;147156.88;5082085;28;20052;-62
2023/03/01 07:42:36;;;;;;;4.15;2.22;;;;;;;-0.08;52.33;147309.38;5081964;28;20313;-63
2023/03/01 07:45:01;;;;;;;4.22;1.80;;;;;;;-0.04;51.94;147318.28;5079312;28;20036;-63
2023/03/01 07:47:28;;;;;;;5.35;2.20;;;;;;;0.68;51.69;147497.59;5081617;28;20056;-64
2023/03/01 07:49:54;;;;;;;5.32;2.13;;;;;;;0.79;51.05;147524.28;5081876;28;20021;-64
2023/03/01 07:52:19;;;;;;;5.40;1.80;;;;;;;0.66;50.76;147491.22;5081992;28;20213;-64
2023/03/01 07:54:45;;;;;;;5.43;2.30;;;;;;;0.86;48.57;147542.09;5080212;28;20217;-62
2023/03/01 07:57:11;;;;;;;5.53;2.75;;;;;;;0.85;48.74;147539.53;5082039;28;20040;-64
2023/03/01 07:59:36;;;;;;;9.70;2.15;;;;;;;0.65;49.87;147489.94;5080620;28;20020;-64
2023/03/01 08:02:02;;;;;;;5.22;1.92;;;;;;;0.44;50.17;147437.81;5081629;28;20016;-63
2023/03/01 08:04:28;;;;;;;5.15;2.35;;;;;;;0.22;51.85;147381.84;5082596;28;20029;-63
2023/03/01 08:06:54;;;;;;;3.22;2.10;;;;;;;0.66;50.02;147491.22;5082559;28;20220;-63
2023/03/01 08:09:21;;;;;;;2.55;1.80;;;;;;;0.55;49.99;147464.50;5086889;28;20028;-63
2023/03/01 08:11:47;;;;;;;6.05;1.83;;;;;;;0.74;50.00;147510.28;5086315;28;20170;-63
2023/03/01 08:14:12;;;;;;;5.70;1.95;;;;;;;1.10;48.65;147600.66;5082264;28;20039;-63
2023/03/01 08:16:38;;;;;;;2.63;1.70;;;;;;;1.31;50.26;147651.53;5091138;28;20293;-63
2023/03/01 08:19:12;;;;;;;5.57;2.30;;;;;;;1.17;49.31;147618.47;5080927;28;20028;-64
2023/03/01 08:21:38;;;;;;;4.63;2.08;;;;;;;1.77;49.95;147766.13;5089396;28;20031;-63
2023/03/01 08:24:05;;;;;;;5.03;2.10;;;;;;;1.95;47.46;147810.66;5075544;28;20351;-63
2023/03/01 08:26:32;;;;;;;3.75;2.22;;;;;;;2.03;47.24;147831.06;5082420;28;20021;-63
2023/03/01 08:28:58;;;;;;;5.90;2.22;;;;;;;1.96;46.95;147811.97;5090941;28;20024;-62
2023/03/01 08:31:27;;;;;;;4.93;1.98;;;;;;;2.21;46.40;147875.66;5082324;28;20263;-61
2023/03/01 08:33:56;;;;;;;2.85;1.60;;;;;;;1.96;46.66;147811.97;5091098;28;20298;-63
2023/03/01 08:36:29;;;;;;;5.93;2.58;;;;;;;2.37;46.50;147913.88;5083724;28;20028;-63
2023/03/01 08:38:55;;;;;;;6.05;2.35;;;;;;;2.70;48.20;147996.66;5083001;28;20067;-63
2023/03/01 08:41:21;;;;;;;4.68;1.95;;;;;;;2.76;47.54;148010.69;5091220;28;20036;-63
2023/03/01 08:43:47;;;;;;;3.53;2.33;;;;;;;3.24;46.87;148129.25;5084038;28;20024;-63
2023/03/01 08:46:13;;;;;;;3.78;2.25;;;;;;;3.07;46.82;148087.19;5091978;28;20056;-63
2023/03/01 08:48:42;;;;;;;5.43;2.10;;;;;;;2.96;48.18;148060.38;5068519;28;20055;-64
2023/03/01 08:51:16;;;;;;;4.75;1.85;;;;;;;2.86;46.84;148034.91;5081426;28;20103;-63
2023/03/01 08:53:42;;;;;;;5.65;1.90;;;;;;;3.30;46.67;148144.53;5081297;28;20028;-64
2023/03/01 08:56:09;;;;;;;4.55;2.00;;;;;;;3.47;45.73;148185.34;5080512;28;20067;-62
2023/03/01 08:58:35;;;;;;;5.78;1.90;;;;;;;4.35;44.10;148403.44;5080138;28;20033;-63
2023/03/01 09:01:06;;;;;;;5.28;1.70;;;;;;;3.95;45.08;148305.25;5080301;28;20308;-63
2023/03/01 09:03:31;;;;;;;2.88;1.80;;;;;;;3.14;46.61;148105.03;5085673;28;20031;-63
2023/03/01 09:06:01;;;;;;;4.15;1.83;;;;;;;2.40;47.71;147921.50;5081580;28;20021;-64
2023/03/01 09:08:27;;;;;;;5.18;2.22;;;;;;;2.94;45.93;148056.56;5063437;28;20166;-64
2023/03/01 09:10:52;;;;;;;3.75;2.60;;;;;;;3.25;46.35;148131.75;5080850;28;20044;-63
2023/03/01 09:13:18;;;;;;;3.83;2.22;;;;;;;4.13;44.49;148351.16;5080510;28;20469;-63
2023/03/01 09:15:43;;;;;;;4.95;2.28;;;;;;;4.10;44.97;148343.47;5062675;28;20131;-64
2023/03/01 09:18:09;;;;;;;7.45;3.58;;;;;;;4.95;44.40;148552.81;5084111;28;20261;-64
2023/03/01 09:20:34;;;;;;;5.20;2.38;;;;;;;4.79;42.23;148513.25;5079682;28;20021;-63
2023/03/01 09:23:00;;;;;;;4.22;1.88;;;;;;;5.18;43.69;148611.53;5084204;28;20027;-63
2023/03/01 09:25:28;;;;;;;6.10;2.30;;;;;;;5.55;43.44;148702.22;5083394;28;20020;-64
2023/03/01 09:28:12;;;;;;;3.28;2.00;;;;;;;5.29;42.29;148637.09;5078850;28;20017;-63
2023/03/01 09:31:06;;;;;;;7.50;2.45;;;;;;;5.12;42.10;148596.22;5080776;28;20329;-64
2023/03/01 09:33:34;;;;;;;4.60;2.05;;;;;;;4.42;42.85;148422.59;5086978;28;20034;-63
2023/03/01 09:36:06;;;;;;;5.43;1.90;;;;;;;3.82;43.32;148272.03;5068659;28;20037;-63
2023/03/01 09:38:33;;;;;;;3.70;2.15;;;;;;;3.52;44.57;148199.38;5064579;28;20020;-63
2023/03/01 09:41:00;;;;;;;5.55;2.00;;;;;;;3.32;46.29;148149.66;5080613;28;20031;-64
2023/03/01 09:43:57;;;;;;;3.63;1.83;;;;;;;2.78;45.95;148014.50;5081621;28;20040;-63
2023/03/01 09:46:39;;;;;;;5.20;1.80;;;;;;;2.09;46.15;147845.06;5084610;28;20055;-63
2023/03/01 09:49:22;;;;;;;4.35;1.67;;;;;;;1.77;47.10;147764.81;5084092;28;20055;-63
2023/03/01 09:52:40;;;;;;;6.20;2.22;;;;;;;1.64;48.28;147733.00;5072575;28;20032;-63
2023/03/01 09:55:17;;;;;;;8.13;2.33;;;;;;;1.20;49.45;147624.84;5047590;28;20033;-63
2023/03/01 09:57:56;;;;;;;4.75;1.90;;;;;;;1.26;48.50;147638.84;5085417;28;20028;-63
2023/03/01 10:00:36;;;;;;;4.13;1.70;;;;;;;1.19;49.93;147623.53;5065952;28;20048;-64
2023/03/01 10:03:42;;;;;;;4.10;2.22;;;;;;;1.14;51.07;147610.84;5084393;28;20059;-64
2023/03/01 10:06:21;;;;;;;3.90;1.80;;;;;;;0.97;51.15;147568.84;5083831;28;20411;-63
2023/03/01 10:08:53;;;;;;;4.07;2.10;;;;;;;0.68;50.74;147497.59;5083806;28;20078;-63
2023/03/01 10:11:26;;;;;;;4.82;2.38;;;;;;;0.57;52.02;147468.31;5076627;28;20028;-63
2023/03/01 10:14:02;;;;;;;4.78;1.80;;;;;;;0.11;52.25;147356.38;5064061;28;20025;-64
2023/03/01 10:16:58;;;;;;;3.70;1.90;;;;;;;0.29;52.43;147399.66;5083746;28;20090;-63
2023/03/01 10:19:33;;;;;;;6.47;1.98;;;;;;;0.32;53.27;147408.53;5052795;28;20048;-62
2023/03/01 10:22:12;;;;;;;6.15;1.80;;;;;;;-0.10;53.64;147304.31;5090472;28;20039;-63
2023/03/01 10:24:38;;;;;;;6.55;1.42;;;;;;;0.12;52.97;147357.69;5086778;28;20091;-63
2023/03/01 10:27:28;;;;;;;5.03;1.92;;;;;;;0.26;53.84;147392.03;5083862;28;20202;-63
2023/03/01 10:30:19;;;;;;;2.88;1.45;;;;;;;-0.01;53.69;147325.91;5078154;28;20292;-63
2023/03/01 10:32:51;;;;;;;4.60;1.85;;;;;;;0.06;53.20;147342.41;5075187;28;20028;-63
2023/03/01 10:35:21;;;;;;;3.95;1.60;;;;;;;0.12;53.58;147357.69;5083810;28;20039;-63
2023/03/01 10:38:03;;;;;;;5.53;2.15;;;;;;;0.14;54.70;147364.06;5084441;28;20031;-62
2023/03/01 10:40:29;;;;;;;4.30;1.85;;;;;;;-0.02;52.59;147324.59;5090564;28;20047;-63
2023/03/01 10:43:04;;;;;;;4.40;1.98;;;;;;;-0.34;54.66;147244.56;5084334;28;20029;-63
2023/03/01 10:45:30;;;;;;;4.72;2.00;;;;;;;-0.01;53.92;147325.91;5090312;28;20031;-63
2023/03/01 10:48:14;;;;;;;3.50;2.05;;;;;;;0.06;54.67;147343.69;5084507;28;20212;-62
2023/03/01 10:50:45;;;;;;;2.53;1.60;;;;;;;-0.13;54.82;147295.38;5090794;28;20036;-62
2023/03/01 10:53:57;;;;;;;6.00;1.42;;;;;;;-0.07;54.69;147311.91;5085282;28;20164;-63
2023/03/01 10:56:23;;;;;;;3.85;1.77;;;;;;;0.02;53.58;147332.28;5037655;28;20041;-63
2023/03/01 10:59:05;;;;;;;3.30;1.67;;;;;;;-0.15;54.12;147290.31;5072226;28;20106;-63
2023/03/01 11:01:35;;;;;;;4.18;1.65;;;;;;;-0.30;54.69;147253.44;5084366;28;20317;-63
2023/03/01 11:04:07;;;;;;;5.82;2.40;;;;;;;-0.15;55.34;147291.56;5083881;28;20040;-62
2023/03/01 11:06:34;;;;;;;6.57;1.90;;;;;;;-0.30;52.76;147254.72;5083823;28;20268;-63
2023/03/01 11:09:17;;;;;;;4.10;2.03;;;;;;;-0.31;53.39;147252.19;5083581;28;20028;-64
2023/03/01 11:11:44;;;;;;;3.25;1.80;;;;;;;-0.25;52.72;147266.16;5087351;28;20091;-63
2023/03/01 11:14:16;;;;;;;3.60;1.80;;;;;;;-0.70;53.41;147155.56;5067165;28;20029;-63
2023/03/01 11:16:45;;;;;;;6.28;1.73;;;;;;;-0.85;53.90;147118.75;5071654;28;20029;-63
2023/03/01 11:24:02;;;;;;;5.97;1.95;;;;;;;-0.57;55.38;147188.63;5118040;27;21175;-63
2023/03/01 11:26:31;;;;;;;4.65;2.00;;;;;;;-0.62;53.88;147175.91;5119317;28;20028;-63
2023/03/01 11:29:01;;;;;;;4.75;2.05;;;;;;;-0.24;54.23;147269.97;5119593;28;20031;-64
2023/03/01 11:31:29;;;;;;;3.67;1.63;;;;;;;-0.28;54.30;147258.53;5119830;28;20035;-64
2023/03/01 11:34:08;;;;;;;5.80;1.77;;;;;;;-0.28;53.35;147258.53;5119485;28;20031;-63
2023/03/01 11:36:53;;;;;;;3.53;1.77;;;;;;;-0.44;52.52;147219.09;5119854;28;20027;-64
2023/03/01 11:39:59;;;;;;;3.33;1.42;;;;;;;-0.08;52.84;147308.09;5107305;28;20032;-63
2023/03/01 11:42:46;;;;;;;4.75;1.90;;;;;;;-0.23;51.94;147271.22;5112758;28;20039;-64
2023/03/01 11:45:12;;;;;;;4.95;1.73;;;;;;;-0.19;52.66;147282.66;5123135;28;20042;-64
2023/03/01 11:47:50;;;;;;;4.53;1.33;;;;;;;-0.25;51.84;147266.16;5114044;28;20020;-63